createdAt,value
2018-06-09T00:01:57.595Z,18.7
2018-06-09T00:18:43.833Z,18.7
2018-06-09T00:35:29.950Z,18.4
2018-06-09T00:52:15.959Z,18.4
2018-06-09T01:09:01.951Z,18.4
2018-06-09T01:25:47.897Z,18.4
2018-06-09T01:42:33.789Z,18.4
2018-06-09T01:59:19.707Z,18.1
2018-06-09T02:16:05.391Z,18.1
2018-06-09T02:32:50.995Z,18.1
2018-06-09T02:49:36.461Z,17.8
2018-06-09T03:06:21.769Z,17.8
2018-06-09T03:23:06.534Z,17.4
2018-06-09T03:39:51.117Z,17.4
2018-06-09T03:56:35.643Z,17.4
2018-06-09T04:13:20.172Z,17.1
2018-06-09T04:30:06.143Z,17.1
2018-06-09T04:46:49.015Z,17.1
2018-06-09T05:03:33.979Z,17.4
2018-06-09T05:20:19.164Z,17.4
2018-06-09T05:30:22.428Z,18.1
2018-06-09T05:47:08.272Z,18.4
2018-06-09T06:00:33.196Z,19.0
2018-06-09T06:17:19.922Z,19.4
2018-06-09T06:34:06.761Z,19.7
2018-06-09T06:50:53.780Z,20.0
2018-06-09T07:07:41.082Z,20.6
2018-06-09T07:24:28.856Z,21.0
2018-06-09T07:34:33.774Z,21.6
2018-06-09T07:51:22.670Z,21.9
2018-06-09T08:08:12.260Z,22.2
2018-06-09T08:18:17.554Z,22.9
2018-06-09T08:28:23.633Z,23.5
2018-06-09T08:45:14.354Z,23.8
2018-06-09T09:02:05.020Z,23.8
2018-06-09T09:08:49.495Z,24.5
2018-06-09T09:25:41.096Z,24.8
2018-06-09T09:32:25.968Z,25.4
2018-06-09T09:45:56.167Z,26.1
2018-06-09T10:02:49.892Z,26.1
2018-06-09T10:11:17.059Z,26.7
2018-06-09T10:28:11.517Z,26.4
2018-06-09T10:45:06.065Z,26.7
2018-06-09T10:51:52.037Z,27.4
2018-06-09T11:08:47.180Z,27.0
2018-06-09T11:25:41.769Z,26.7
2018-06-09T11:42:36.616Z,26.7
2018-06-09T11:59:30.985Z,27.0
2018-06-09T12:16:25.784Z,27.0
2018-06-09T12:29:57.836Z,27.7
2018-06-09T12:46:53.451Z,27.4
2018-06-09T12:51:57.720Z,28.0
2018-06-09T12:57:02.480Z,28.0
2018-06-09T13:13:58.202Z,28.0
2018-06-09T13:30:54.813Z,28.0
2018-06-09T13:47:49.957Z,28.3
2018-06-09T14:04:46.019Z,28.6
2018-06-09T14:21:42.398Z,28.6
2018-06-09T14:38:39.121Z,29.0
2018-06-09T14:55:35.738Z,29.0
2018-06-09T15:12:32.573Z,28.6
2018-06-09T15:29:29.934Z,29.0
2018-06-09T15:36:16.076Z,29.6
2018-06-09T15:53:13.257Z,29.3
2018-06-09T16:06:46.912Z,29.9
2018-06-09T16:22:03.155Z,30.6
2018-06-09T16:30:32.474Z,31.2
2018-06-09T16:44:07.384Z,31.8
2018-06-09T17:01:06.632Z,32.2
2018-06-09T17:11:18.072Z,31.5
2018-06-09T17:28:16.700Z,31.5
2018-06-09T17:35:04.138Z,30.9
2018-06-09T17:46:56.937Z,30.2
2018-06-09T17:53:44.276Z,29.6
2018-06-09T18:00:31.159Z,29.0
2018-06-09T18:05:36.135Z,28.3
2018-06-09T18:17:27.279Z,27.7
2018-06-09T18:34:21.911Z,27.4
2018-06-09T18:44:30.369Z,26.7
2018-06-09T19:01:23.947Z,26.4
2018-06-09T19:18:17.409Z,26.1
2018-06-09T19:35:10.068Z,25.8
2018-06-09T19:52:03.434Z,25.1
2018-06-09T19:58:47.242Z,24.5
2018-06-09T20:05:32.159Z,23.8
2018-06-09T20:22:22.396Z,23.5
2018-06-09T20:25:44.602Z,22.6
2018-06-09T20:29:06.257Z,21.9
2018-06-09T20:45:54.952Z,21.3
2018-06-09T21:02:43.155Z,21.0
2018-06-09T21:19:31.213Z,21.0
2018-06-09T21:29:35.861Z,20.3
2018-06-09T21:46:23.385Z,20.3
2018-06-09T22:03:10.774Z,20.0
2018-06-09T22:19:58.084Z,20.0
2018-06-09T22:36:45.174Z,19.7
2018-06-09T22:53:32.219Z,19.7
2018-06-09T23:10:18.982Z,19.7
2018-06-09T23:27:05.868Z,19.7
2018-06-09T23:43:52.837Z,19.7
